Time;durP1;ratioP1;P1;durP2;ratioP2;P2;SDS_P1;SDS_P2;PMS_P1;PMS_P2;Temp;Humidity;BMP_temperature;BMP_pressure;BME280_temperature;BME280_humidity;BME280_pressure;Samples;Min_cycle;Max_cycle;Signal;HPM_P1;HPM_P2
2020/12/25 00:01:25;;;;;;;5.95;3.80;;;5.80;99.90;;;;;;5071667;28;20242;-48
2020/12/25 00:03:52;;;;;;;6.55;3.67;;;5.80;99.90;;;;;;5071706;28;20199;-50
2020/12/25 00:06:20;;;;;;;7.28;3.78;;;5.90;99.90;;;;;;5071732;28;20192;-50
2020/12/25 00:08:46;;;;;;;7.70;4.00;;;5.90;99.90;;;;;;5071808;28;20207;-50
2020/12/25 00:11:13;;;;;;;6.95;4.38;;;5.70;99.90;;;;;;5070130;28;20579;-50
2020/12/25 00:13:40;;;;;;;5.80;4.35;;;5.80;99.90;;;;;;5071456;28;20271;-50
2020/12/25 00:16:06;;;;;;;8.00;3.90;;;5.80;99.90;;;;;;5071568;28;20187;-51
2020/12/25 00:18:33;;;;;;;6.15;3.22;;;5.90;99.90;;;;;;5071529;28;20187;-51
2020/12/25 00:20:59;;;;;;;6.73;3.57;;;5.70;99.90;;;;;;5071616;28;20215;-51
2020/12/25 00:23:27;;;;;;;4.95;3.40;;;5.90;99.90;;;;;;5071208;28;20422;-52
2020/12/25 00:25:53;;;;;;;6.20;3.67;;;6.00;99.90;;;;;;5071663;28;20199;-51
2020/12/25 00:28:20;;;;;;;8.25;4.00;;;6.10;99.90;;;;;;5071772;28;20722;-51
2020/12/25 00:30:46;;;;;;;6.45;3.90;;;5.90;99.90;;;;;;5071535;28;20187;-51
2020/12/25 00:33:13;;;;;;;6.93;3.38;;;5.60;99.90;;;;;;5071278;28;20222;-51
2020/12/25 00:35:42;;;;;;;6.10;3.83;;;5.50;99.90;;;;;;5070291;28;20211;-50
2020/12/25 00:38:09;;;;;;;7.85;4.25;;;5.70;99.90;;;;;;5072410;28;20433;-50
2020/12/25 00:40:41;;;;;;;5.57;3.58;;;5.90;99.90;;;;;;5075285;28;20215;-49
2020/12/25 00:43:08;;;;;;;6.10;3.95;;;5.60;99.90;;;;;;5075189;28;20211;-50
2020/12/25 00:45:35;;;;;;;6.83;4.27;;;5.90;99.90;;;;;;5075589;28;20568;-48
2020/12/25 00:48:02;;;;;;;4.53;4.10;;;5.70;99.90;;;;;;5075378;28;20492;-50
2020/12/25 00:50:29;;;;;;;4.35;3.42;;;5.70;99.90;;;;;;5073643;28;20441;-49
2020/12/25 00:52:56;;;;;;;4.78;3.45;;;5.90;99.90;;;;;;5074875;28;20222;-50
2020/12/25 00:55:22;;;;;;;6.20;4.63;;;5.90;99.90;;;;;;5073862;28;20199;-49
2020/12/25 00:57:50;;;;;;;5.90;3.80;;;5.80;99.90;;;;;;5073849;28;20545;-49
2020/12/25 01:00:20;;;;;;;5.63;3.63;;;5.60;99.90;;;;;;5073684;28;20306;-50
2020/12/25 01:02:46;;;;;;;6.13;3.97;;;6.00;99.90;;;;;;5074329;28;20285;-50
2020/12/25 01:05:12;;;;;;;5.88;3.53;;;5.80;99.90;;;;;;5074662;28;20449;-50
2020/12/25 01:07:39;;;;;;;4.07;3.60;;;5.70;99.90;;;;;;5074987;28;20200;-50
2020/12/25 01:10:06;;;;;;;6.23;4.07;;;5.90;99.90;;;;;;5074833;28;20984;-50
2020/12/25 01:12:32;;;;;;;6.88;3.50;;;5.90;99.90;;;;;;5074484;28;20977;-51
2020/12/25 01:14:59;;;;;;;4.17;2.67;;;5.70;99.90;;;;;;5075003;28;20199;-52
2020/12/25 01:17:26;;;;;;;4.73;3.00;;;5.80;99.90;;;;;;5075429;28;20443;-52
2020/12/25 01:19:53;;;;;;;4.70;3.08;;;5.70;99.90;;;;;;5074585;28;20469;-52
2020/12/25 01:22:19;;;;;;;4.13;3.25;;;6.00;99.90;;;;;;5074563;28;20209;-50
2020/12/25 01:24:46;;;;;;;5.15;3.80;;;5.80;99.90;;;;;;5074778;28;20204;-51
2020/12/25 01:27:12;;;;;;;8.88;3.60;;;5.80;99.90;;;;;;5074637;28;20292;-50
2020/12/25 01:29:39;;;;;;;3.40;2.97;;;5.70;99.90;;;;;;5073092;28;20203;-50
2020/12/25 01:32:06;;;;;;;3.75;3.13;;;5.20;99.90;;;;;;5074174;28;20543;-51
2020/12/25 01:34:33;;;;;;;4.55;2.85;;;5.90;99.90;;;;;;5073996;28;20503;-51
2020/12/25 01:36:59;;;;;;;3.70;2.78;;;5.80;99.90;;;;;;5074288;28;20247;-51
2020/12/25 01:39:26;;;;;;;4.75;2.90;;;5.60;99.90;;;;;;5074133;28;20606;-51
2020/12/25 01:41:52;;;;;;;4.60;2.83;;;5.90;99.90;;;;;;5073986;28;20215;-51
2020/12/25 01:44:19;;;;;;;6.35;2.58;;;5.60;99.90;;;;;;5073796;28;20468;-51
2020/12/25 01:46:45;;;;;;;7.53;2.85;;;5.60;99.90;;;;;;5074158;28;20573;-51
2020/12/25 01:49:13;;;;;;;2.78;2.42;;;5.70;99.90;;;;;;5073390;28;20195;-49
2020/12/25 01:51:40;;;;;;;2.40;1.97;;;5.80;99.90;;;;;;5073661;28;20650;-50
2020/12/25 01:54:07;;;;;;;3.73;2.10;;;5.70;99.90;;;;;;5072300;28;20938;-49
2020/12/25 01:56:34;;;;;;;3.60;2.37;;;5.80;99.90;;;;;;5073937;28;20424;-50
2020/12/25 01:59:01;;;;;;;3.15;1.85;;;5.60;99.90;;;;;;5073903;28;20830;-51
2020/12/25 02:01:27;;;;;;;4.43;2.22;;;5.60;99.90;;;;;;5073458;28;20692;-50
2020/12/25 02:03:54;;;;;;;3.83;1.90;;;5.60;99.90;;;;;;5073422;28;20198;-49
2020/12/25 02:06:21;;;;;;;2.70;1.60;;;5.70;99.90;;;;;;5073922;28;20187;-48
2020/12/25 02:08:48;;;;;;;2.33;1.40;;;5.10;99.90;;;;;;5073776;28;20689;-48
2020/12/25 02:11:15;;;;;;;3.90;2.00;;;5.80;99.90;;;;;;5073855;28;20667;-50
2020/12/25 02:13:42;;;;;;;3.95;2.15;;;5.50;99.90;;;;;;5073608;28;20703;-50
2020/12/25 02:16:09;;;;;;;4.25;1.65;;;5.80;99.90;;;;;;5073766;28;20187;-50
2020/12/25 02:18:38;;;;;;;3.67;1.80;;;5.30;99.90;;;;;;5073764;28;20231;-50
2020/12/25 02:21:06;;;;;;;1.88;1.30;;;5.30;99.90;;;;;;5072151;28;20227;-49
2020/12/25 02:23:32;;;;;;;1.55;1.20;;;5.60;99.90;;;;;;5073301;28;20728;-49
2020/12/25 02:25:59;;;;;;;4.50;1.40;;;5.60;99.90;;;;;;5073351;28;20192;-49
2020/12/25 02:28:25;;;;;;;1.55;1.25;;;5.40;99.90;;;;;;5073371;28;20203;-49
2020/12/25 02:30:52;;;;;;;2.20;1.10;;;5.20;99.90;;;;;;5073263;28;20183;-49
2020/12/25 02:33:19;;;;;;;2.42;1.65;;;5.40;99.90;;;;;;5073185;28;20586;-49
2020/12/25 02:35:45;;;;;;;5.53;1.55;;;5.30;99.90;;;;;;5073655;28;20248;-50
2020/12/25 02:38:12;;;;;;;1.70;1.20;;;5.30;99.90;;;;;;5072119;28;20203;-52
2020/12/25 02:40:39;;;;;;;1.92;1.30;;;5.60;99.90;;;;;;5073289;28;20825;-52
2020/12/25 02:43:06;;;;;;;1.75;1.10;;;5.40;99.90;;;;;;5072852;28;20558;-50
2020/12/25 02:45:32;;;;;;;2.85;1.23;;;5.30;99.90;;;;;;5073761;28;20246;-50
2020/12/25 02:47:59;;;;;;;2.03;1.05;;;5.40;99.90;;;;;;5073657;28;20617;-52
2020/12/25 02:50:25;;;;;;;1.80;1.30;;;5.40;99.90;;;;;;5072987;28;20312;-50
2020/12/25 02:52:52;;;;;;;2.42;1.10;;;5.50;99.90;;;;;;5072641;28;20211;-50
2020/12/25 02:55:19;;;;;;;1.30;0.95;;;5.40;99.90;;;;;;5072764;28;20684;-50
2020/12/25 02:57:46;;;;;;;2.25;1.10;;;5.30;99.90;;;;;;5072813;28;20535;-50
2020/12/25 03:00:12;;;;;;;3.50;1.10;;;5.50;99.90;;;;;;5072701;28;20211;-51
2020/12/25 03:02:39;;;;;;;4.03;1.10;;;5.30;99.90;;;;;;5071576;28;20776;-51
2020/12/25 03:05:05;;;;;;;2.45;1.33;;;5.20;99.90;;;;;;5071741;28;20426;-51
2020/12/25 03:07:32;;;;;;;1.90;0.82;;;5.30;99.90;;;;;;5072686;28;20250;-51
2020/12/25 03:09:58;;;;;;;2.17;0.98;;;5.30;99.90;;;;;;5072561;28;20212;-51
2020/12/25 03:12:26;;;;;;;1.45;1.02;;;5.50;99.90;;;;;;5072400;28;20322;-50
2020/12/25 03:14:52;;;;;;;3.50;1.10;;;5.30;99.90;;;;;;5072677;28;20664;-50
2020/12/25 03:17:19;;;;;;;1.90;0.90;;;5.40;99.90;;;;;;5072432;28;20195;-50
2020/12/25 03:19:45;;;;;;;2.15;1.02;;;5.40;99.90;;;;;;5072885;28;20195;-49
2020/12/25 03:22:12;;;;;;;3.10;1.27;;;5.10;99.90;;;;;;5072265;28;20261;-49
2020/12/25 03:24:38;;;;;;;1.30;0.98;;;5.10;99.90;;;;;;5072083;28;20191;-49
2020/12/25 03:27:05;;;;;;;1.20;0.98;;;5.20;99.90;;;;;;5072390;28;20192;-51
2020/12/25 03:29:32;;;;;;;2.33;1.38;;;5.20;99.90;;;;;;5072270;28;20188;-49
2020/12/25 03:31:59;;;;;;;1.10;0.90;;;5.10;99.90;;;;;;5072105;28;20714;-50
2020/12/25 03:34:28;;;;;;;1.60;1.08;;;5.30;99.90;;;;;;5072271;28;20191;-50
2020/12/25 03:36:54;;;;;;;4.25;1.08;;;5.20;99.90;;;;;;5072151;28;20211;-50
2020/12/25 03:39:21;;;;;;;1.00;0.80;;;5.10;99.90;;;;;;5072331;28;20274;-50
2020/12/25 03:41:47;;;;;;;1.60;1.00;;;5.20;99.90;;;;;;5072027;28;20223;-50
2020/12/25 03:44:14;;;;;;;1.45;0.80;;;5.00;99.90;;;;;;5071613;28;20214;-50
2020/12/25 03:46:41;;;;;;;2.90;1.50;;;5.10;99.90;;;;;;5072342;28;20199;-50
2020/12/25 03:49:08;;;;;;;2.80;1.27;;;5.30;99.90;;;;;;5071951;28;20202;-49
2020/12/25 03:51:35;;;;;;;2.53;1.15;;;5.30;99.90;;;;;;5070634;28;20640;-50
2020/12/25 03:54:01;;;;;;;2.75;0.98;;;5.10;99.90;;;;;;5071601;28;20191;-50
2020/12/25 03:56:28;;;;;;;2.03;1.08;;;5.10;99.90;;;;;;5071952;28;20598;-50
2020/12/25 03:58:54;;;;;;;2.75;0.88;;;4.90;99.90;;;;;;5071995;28;20195;-51
2020/12/25 04:01:21;;;;;;;4.15;1.92;;;5.30;99.90;;;;;;5071892;28;20284;-50
2020/12/25 04:03:48;;;;;;;1.40;0.90;;;5.50;99.90;;;;;;5071462;28;20620;-50
2020/12/25 04:06:15;;;;;;;2.17;0.90;;;5.00;99.90;;;;;;5072407;28;20233;-50
2020/12/25 04:08:43;;;;;;;2.07;1.20;;;5.20;99.90;;;;;;5072969;28;20203;-50
2020/12/25 04:11:09;;;;;;;3.42;1.70;;;5.50;99.90;;;;;;5071832;28;20457;-50
2020/12/25 04:13:36;;;;;;;1.55;1.10;;;5.20;99.90;;;;;;5072049;28;20200;-50
2020/12/25 04:16:03;;;;;;;1.35;0.98;;;5.00;99.90;;;;;;5073118;28;20195;-50
2020/12/25 04:18:31;;;;;;;1.85;1.05;;;5.20;99.90;;;;;;5074214;28;20227;-50
2020/12/25 04:20:58;;;;;;;2.97;1.35;;;5.00;99.90;;;;;;5072909;28;20207;-50
2020/12/25 04:23:25;;;;;;;3.35;1.00;;;5.20;99.90;;;;;;5071543;28;20240;-49
2020/12/25 04:25:52;;;;;;;3.08;1.25;;;5.20;99.90;;;;;;5071700;28;20192;-50
2020/12/25 04:28:18;;;;;;;2.65;1.20;;;5.10;99.90;;;;;;5071588;28;20195;-50
2020/12/25 04:30:45;;;;;;;2.35;1.55;;;5.30;99.90;;;;;;5072091;28;20199;-50
2020/12/25 04:33:12;;;;;;;1.85;1.05;;;5.00;99.90;;;;;;5071220;28;20250;-50
2020/12/25 04:35:39;;;;;;;1.52;1.00;;;5.40;99.90;;;;;;5071849;28;20226;-50
2020/12/25 04:38:06;;;;;;;2.67;1.17;;;5.00;99.90;;;;;;5071655;28;20295;-51
2020/12/25 04:40:34;;;;;;;2.85;1.67;;;5.30;99.90;;;;;;5071466;28;20215;-50
2020/12/25 04:43:03;;;;;;;2.45;1.00;;;5.40;99.90;;;;;;5071086;28;20223;-50
2020/12/25 04:45:29;;;;;;;3.67;1.42;;;5.30;99.90;;;;;;5071542;28;20270;-51
2020/12/25 04:47:57;;;;;;;1.77;1.02;;;5.40;99.90;;;;;;5071617;28;20245;-50
2020/12/25 04:50:23;;;;;;;3.17;1.42;;;5.20;99.90;;;;;;5071426;28;20431;-50
2020/12/25 04:52:50;;;;;;;2.05;1.13;;;5.20;99.90;;;;;;5071156;28;20246;-51
2020/12/25 04:55:17;;;;;;;3.55;1.70;;;5.10;99.90;;;;;;5071771;28;20667;-50
2020/12/25 04:57:44;;;;;;;2.83;1.63;;;5.10;99.90;;;;;;5071252;28;20668;-51
2020/12/25 05:00:20;;;;;;;2.72;1.30;;;5.00;99.90;;;;;;5071341;28;20680;-51
2020/12/25 05:02:48;;;;;;;2.50;1.52;;;5.00;99.90;;;;;;5070809;28;20219;-51
2020/12/25 05:05:18;;;;;;;2.83;1.55;;;5.10;99.90;;;;;;5071318;28;20200;-51
2020/12/25 05:07:45;;;;;;;4.40;1.80;;;5.20;99.90;;;;;;5071496;28;20198;-51
2020/12/25 05:10:12;;;;;;;1.60;1.45;;;5.10;99.90;;;;;;5071272;28;20219;-51
2020/12/25 05:12:40;;;;;;;1.65;1.10;;;5.10;99.90;;;;;;5070906;28;20711;-51
2020/12/25 05:15:07;;;;;;;1.95;1.27;;;5.10;99.90;;;;;;5071548;28;20206;-51
2020/12/25 05:17:35;;;;;;;2.10;1.23;;;5.00;99.90;;;;;;5071268;28;20203;-52
2020/12/25 05:20:03;;;;;;;2.38;1.45;;;4.70;99.90;;;;;;5071315;28;20222;-51
2020/12/25 05:22:30;;;;;;;2.30;1.77;;;4.90;99.90;;;;;;5071003;28;20235;-52
2020/12/25 05:25:00;;;;;;;1.80;1.20;;;4.80;99.90;;;;;;5071835;28;20218;-51
2020/12/25 05:27:28;;;;;;;4.10;1.25;;;4.90;99.90;;;;;;5073695;28;20210;-51
2020/12/25 05:29:57;;;;;;;2.20;1.15;;;5.10;99.90;;;;;;5075118;28;20195;-51
2020/12/25 05:32:27;;;;;;;2.42;1.63;;;5.20;99.90;;;;;;5074551;28;20231;-52
2020/12/25 05:34:55;;;;;;;3.05;1.08;;;5.10;99.90;;;;;;5074516;28;20678;-51
2020/12/25 05:37:22;;;;;;;2.50;1.10;;;5.30;99.90;;;;;;5074828;28;20195;-51
2020/12/25 05:39:49;;;;;;;3.47;1.08;;;5.20;99.90;;;;;;5074640;28;20608;-51
2020/12/25 05:42:16;;;;;;;1.98;1.20;;;5.10;99.90;;;;;;5073887;28;20318;-49
2020/12/25 05:44:46;;;;;;;1.20;0.80;;;5.20;99.90;;;;;;5074344;28;20752;-51
2020/12/25 05:47:15;;;;;;;2.85;1.00;;;5.10;99.90;;;;;;5074479;28;20652;-50
2020/12/25 05:49:42;;;;;;;1.75;1.10;;;5.10;99.90;;;;;;5074191;28;20200;-50
2020/12/25 05:52:09;;;;;;;1.30;0.82;;;4.90;99.90;;;;;;5073987;28;20651;-50
2020/12/25 05:54:35;;;;;;;2.05;0.93;;;5.10;99.90;;;;;;5073908;28;20195;-50
2020/12/25 05:57:03;;;;;;;1.30;0.90;;;4.90;99.90;;;;;;5074126;28;20609;-49
2020/12/25 05:59:32;;;;;;;1.77;1.00;;;4.90;99.90;;;;;;5074385;28;20194;-49
2020/12/25 06:02:01;;;;;;;1.50;1.08;;;5.10;99.90;;;;;;5073932;28;20710;-49
2020/12/25 06:04:30;;;;;;;3.40;0.80;;;4.80;99.90;;;;;;5073685;28;20195;-49
2020/12/25 06:06:58;;;;;;;1.63;1.05;;;5.20;99.90;;;;;;5074092;28;20581;-50
2020/12/25 06:09:30;;;;;;;1.45;0.93;;;5.00;99.90;;;;;;5073883;28;20278;-49
2020/12/25 06:11:57;;;;;;;1.40;1.00;;;4.90;99.90;;;;;;5073938;28;20223;-50
2020/12/25 06:14:23;;;;;;;1.40;1.08;;;5.20;99.90;;;;;;5073462;28;20192;-50
2020/12/25 06:17:09;;;;;;;2.85;1.33;;;4.90;99.90;;;;;;5073791;28;20252;-50
2020/12/25 06:19:44;;;;;;;1.85;1.52;;;4.70;99.90;;;;;;5073890;28;20199;-50
2020/12/25 06:22:18;;;;;;;1.92;1.63;;;5.00;99.90;;;;;;5074288;28;20631;-50
2020/12/25 06:24:47;;;;;;;1.30;1.20;;;4.60;99.90;;;;;;5074271;28;20203;-50
2020/12/25 06:27:15;;;;;;;1.50;1.30;;;4.90;99.90;;;;;;5075980;28;20191;-50
2020/12/25 06:29:43;;;;;;;4.22;1.50;;;4.30;99.90;;;;;;5074519;28;20267;-50
2020/12/25 06:32:11;;;;;;;4.50;1.65;;;5.20;99.90;;;;;;5073723;28;20225;-50
2020/12/25 06:34:46;;;;;;;1.70;1.55;;;5.00;99.90;;;;;;5073282;28;20221;-51
2020/12/25 06:37:14;;;;;;;2.65;1.65;;;5.20;99.90;;;;;;5071626;28;20569;-50
2020/12/25 06:39:48;;;;;;;4.15;1.92;;;5.00;99.90;;;;;;5073597;28;20191;-50
2020/12/25 06:42:19;;;;;;;1.70;1.50;;;5.50;99.90;;;;;;5073215;28;20223;-51
2020/12/25 06:44:48;;;;;;;4.57;1.48;;;4.70;99.90;;;;;;5072964;28;20652;-50
2020/12/25 06:47:27;;;;;;;3.30;1.83;;;4.60;99.90;;;;;;5073155;28;20193;-50
2020/12/25 06:49:54;;;;;;;2.60;1.63;;;4.90;99.90;;;;;;5073179;28;20203;-50
2020/12/25 06:52:31;;;;;;;2.63;1.55;;;4.70;99.90;;;;;;5072605;28;20207;-51
2020/12/25 06:54:58;;;;;;;3.55;2.10;;;4.60;99.90;;;;;;5072936;28;20222;-50
2020/12/25 06:57:30;;;;;;;6.97;2.13;;;4.90;99.90;;;;;;5072896;28;20656;-51
2020/12/25 06:59:58;;;;;;;2.85;2.08;;;4.60;99.90;;;;;;5072877;28;20682;-50
2020/12/25 07:02:26;;;;;;;2.45;2.10;;;4.60;99.90;;;;;;5071215;28;20302;-50
2020/12/25 07:05:01;;;;;;;3.72;1.80;;;4.80;99.90;;;;;;5072985;28;20210;-51
2020/12/25 07:07:32;;;;;;;4.30;1.83;;;4.80;99.90;;;;;;5072918;28;20223;-50
2020/12/25 07:10:06;;;;;;;1.98;1.52;;;5.00;99.90;;;;;;5072647;28;20195;-50
2020/12/25 07:12:33;;;;;;;5.65;1.90;;;4.70;99.90;;;;;;5072232;28;20223;-50
2020/12/25 07:14:59;;;;;;;2.97;1.90;;;4.90;99.90;;;;;;5072386;28;20199;-50
2020/12/25 07:17:26;;;;;;;3.50;1.40;;;4.80;99.90;;;;;;5072535;28;20206;-50
2020/12/25 07:19:53;;;;;;;1.35;1.15;;;4.80;99.90;;;;;;5071079;28;20306;-50
2020/12/25 07:22:21;;;;;;;3.83;1.45;;;4.50;99.90;;;;;;5072096;28;20215;-51
2020/12/25 07:24:48;;;;;;;3.67;1.40;;;4.50;99.90;;;;;;5072428;28;20253;-50
2020/12/25 07:27:15;;;;;;;2.55;1.85;;;4.70;99.90;;;;;;5072268;28;20194;-50
2020/12/25 07:29:44;;;;;;;2.15;1.40;;;4.60;99.90;;;;;;5072702;28;20600;-50
2020/12/25 07:32:12;;;;;;;1.85;1.40;;;4.60;99.90;;;;;;5070948;28;20221;-50
2020/12/25 07:34:39;;;;;;;2.33;1.50;;;4.40;99.90;;;;;;5071855;28;20191;-50
2020/12/25 07:37:09;;;;;;;1.98;1.20;;;4.40;99.90;;;;;;5072044;28;20578;-50
2020/12/25 07:39:37;;;;;;;3.50;1.50;;;4.70;99.90;;;;;;5072653;28;20618;-50
2020/12/25 07:42:03;;;;;;;1.20;1.00;;;4.30;99.90;;;;;;5071940;28;20234;-50
2020/12/25 07:44:32;;;;;;;2.83;1.60;;;4.30;99.90;;;;;;5071886;28;20209;-50
2020/12/25 07:46:58;;;;;;;3.85;1.48;;;4.60;99.90;;;;;;5070672;28;20283;-51
2020/12/25 07:49:28;;;;;;;5.97;1.60;;;4.90;99.90;;;;;;5071406;28;20188;-50
2020/12/25 07:51:54;;;;;;;5.20;1.40;;;4.50;99.90;;;;;;5071972;28;20218;-50
2020/12/25 07:54:22;;;;;;;1.77;1.33;;;4.60;99.90;;;;;;5071915;28;20256;-50
2020/12/25 07:56:50;;;;;;;3.97;1.70;;;4.70;99.90;;;;;;5072005;28;20191;-50
2020/12/25 07:59:17;;;;;;;2.15;1.40;;;4.70;99.90;;;;;;5072137;28;20206;-50
2020/12/25 08:01:45;;;;;;;2.92;1.92;;;4.60;99.90;;;;;;5070568;28;20300;-50
2020/12/25 08:04:12;;;;;;;6.35;1.70;;;5.00;99.90;;;;;;5071681;28;20281;-50
2020/12/25 08:06:38;;;;;;;3.30;1.42;;;4.80;99.90;;;;;;5071774;28;20187;-50
2020/12/25 08:09:07;;;;;;;4.68;1.73;;;4.80;99.90;;;;;;5071839;28;20660;-51
2020/12/25 08:11:35;;;;;;;5.00;2.72;;;4.90;99.90;;;;;;5070444;28;20726;-51
2020/12/25 08:14:07;;;;;;;2.75;1.45;;;4.70;99.90;;;;;;5071594;28;20278;-51
2020/12/25 08:16:37;;;;;;;2.80;1.50;;;4.80;99.90;;;;;;5070849;28;20280;-49
2020/12/25 08:19:03;;;;;;;1.52;1.33;;;4.70;99.90;;;;;;5071879;28;20192;-48
2020/12/25 08:21:31;;;;;;;3.53;1.83;;;4.70;99.90;;;;;;5071618;28;20227;-49
2020/12/25 08:23:58;;;;;;;3.50;1.23;;;4.70;99.90;;;;;;5071614;28;20325;-50
2020/12/25 08:26:30;;;;;;;2.10;1.42;;;4.70;99.90;;;;;;5071895;28;20196;-49
2020/12/25 08:28:57;;;;;;;2.63;1.38;;;4.70;99.90;;;;;;5072118;28;20195;-48
2020/12/25 08:31:24;;;;;;;2.63;1.20;;;4.60;99.90;;;;;;5072071;28;20215;-50
2020/12/25 08:33:54;;;;;;;4.47;1.40;;;4.60;99.90;;;;;;5071652;28;20191;-49
2020/12/25 08:36:21;;;;;;;4.55;1.60;;;4.70;99.90;;;;;;5071207;28;20276;-49
2020/12/25 08:38:48;;;;;;;2.20;1.33;;;4.60;99.90;;;;;;5071006;28;20215;-49
2020/12/25 08:41:14;;;;;;;2.08;1.08;;;4.90;99.90;;;;;;5071642;28;20691;-49
2020/12/25 08:43:41;;;;;;;2.80;1.67;;;4.90;99.90;;;;;;5071246;28;20188;-49
2020/12/25 08:46:08;;;;;;;3.28;1.50;;;4.90;99.90;;;;;;5071629;28;20187;-49
2020/12/25 08:48:49;;;;;;;1.73;1.33;;;4.40;99.90;;;;;;5071654;28;20203;-49
2020/12/25 08:51:16;;;;;;;1.77;1.13;;;5.00;99.90;;;;;;5071742;28;20191;-48
2020/12/25 08:53:50;;;;;;;3.05;1.42;;;4.60;99.90;;;;;;5071370;28;20728;-49
2020/12/25 08:56:18;;;;;;;2.00;1.63;;;4.80;99.90;;;;;;5071887;28;20199;-49
2020/12/25 08:58:55;;;;;;;2.33;1.20;;;4.70;99.90;;;;;;5074432;28;20256;-50
2020/12/25 09:01:22;;;;;;;3.42;1.90;;;4.90;99.90;;;;;;5076237;28;20610;-50
2020/12/25 09:03:49;;;;;;;2.33;1.55;;;5.00;99.90;;;;;;5075780;28;20721;-49
2020/12/25 09:06:16;;;;;;;2.83;1.60;;;5.00;99.90;;;;;;5075420;28;20194;-48
2020/12/25 09:08:43;;;;;;;6.65;1.55;;;4.90;99.90;;;;;;5075502;28;20202;-49
2020/12/25 09:11:10;;;;;;;2.92;1.27;;;4.90;99.90;;;;;;5074764;28;20633;-49
2020/12/25 09:13:37;;;;;;;2.30;1.80;;;4.90;99.90;;;;;;5075320;28;20200;-50
2020/12/25 09:16:05;;;;;;;2.40;1.30;;;4.80;99.90;;;;;;5074880;28;20219;-49
2020/12/25 09:18:32;;;;;;;11.35;1.85;;;5.10;99.90;;;;;;5074795;28;20188;-49
2020/12/25 09:21:00;;;;;;;1.75;1.20;;;4.60;99.90;;;;;;5074309;28;20219;-50
2020/12/25 09:23:27;;;;;;;4.32;1.73;;;4.80;99.90;;;;;;5074471;28;20215;-51
2020/12/25 09:25:53;;;;;;;3.20;2.10;;;5.20;99.90;;;;;;5075129;28;20191;-48
2020/12/25 09:28:20;;;;;;;2.53;1.90;;;5.00;99.90;;;;;;5075124;28;20203;-48
2020/12/25 09:30:51;;;;;;;2.40;1.40;;;5.10;99.90;;;;;;5074671;28;20192;-48
2020/12/25 09:33:17;;;;;;;2.72;0.98;;;5.00;99.90;;;;;;5074688;28;20212;-49
2020/12/25 09:35:44;;;;;;;1.98;1.05;;;5.00;99.90;;;;;;5074154;28;20658;-49
2020/12/25 09:38:11;;;;;;;3.83;1.70;;;4.90;99.90;;;;;;5074317;28;20721;-49
2020/12/25 09:40:38;;;;;;;6.93;4.38;;;5.00;99.90;;;;;;5074434;28;20290;-48
2020/12/25 09:43:05;;;;;;;5.10;3.60;;;5.00;99.90;;;;;;5074075;28;20310;-49
2020/12/25 09:45:31;;;;;;;3.75;1.50;;;5.00;99.90;;;;;;5074543;28;20195;-50
2020/12/25 09:47:58;;;;;;;2.22;1.40;;;5.10;99.90;;;;;;5074645;28;20249;-48
2020/12/25 09:50:24;;;;;;;3.17;1.50;;;5.20;99.90;;;;;;5074322;28;20252;-49
2020/12/25 09:52:51;;;;;;;2.42;1.58;;;5.10;99.90;;;;;;5073915;28;20286;-48
2020/12/25 09:55:18;;;;;;;2.63;1.60;;;5.20;99.90;;;;;;5074474;28;20199;-49
2020/12/25 09:57:45;;;;;;;3.35;1.60;;;5.10;99.90;;;;;;5079180;28;20191;-48
2020/12/25 10:00:13;;;;;;;1.98;1.70;;;5.20;99.90;;;;;;5079131;28;20253;-49
2020/12/25 10:02:40;;;;;;;3.20;1.70;;;5.20;99.90;;;;;;5077599;28;20223;-49
2020/12/25 10:05:08;;;;;;;4.82;1.65;;;5.10;99.90;;;;;;5074636;28;20201;-49
2020/12/25 10:07:35;;;;;;;3.65;1.50;;;5.20;99.90;;;;;;5073181;28;20207;-49
2020/12/25 10:10:03;;;;;;;3.40;2.20;;;5.00;99.90;;;;;;5073913;28;20191;-49
2020/12/25 10:12:30;;;;;;;2.92;2.17;;;4.80;99.90;;;;;;5072936;28;20215;-50
2020/12/25 10:14:57;;;;;;;3.25;1.90;;;5.20;99.90;;;;;;5073749;28;20289;-49
2020/12/25 10:17:23;;;;;;;4.13;1.85;;;5.00;99.90;;;;;;5074349;28;20627;-49
2020/12/25 10:19:50;;;;;;;4.95;2.17;;;5.30;99.90;;;;;;5073776;28;20248;-49
2020/12/25 10:22:17;;;;;;;3.63;3.13;;;5.40;99.90;;;;;;5073163;28;20231;-49
2020/12/25 10:24:44;;;;;;;5.35;1.80;;;5.30;99.90;;;;;;5073713;28;20231;-51
2020/12/25 10:27:10;;;;;;;4.13;2.00;;;5.30;99.90;;;;;;5073777;28;20191;-51
2020/12/25 10:29:38;;;;;;;3.78;2.20;;;5.40;99.90;;;;;;5072279;28;20230;-51
2020/12/25 10:32:04;;;;;;;5.50;1.92;;;5.20;99.90;;;;;;5073791;28;20214;-51
2020/12/25 10:34:31;;;;;;;3.22;1.70;;;5.50;99.90;;;;;;5072735;28;20240;-51
2020/12/25 10:36:59;;;;;;;1.75;1.48;;;5.30;99.90;;;;;;5073143;28;20236;-50
2020/12/25 10:39:26;;;;;;;4.13;1.80;;;5.30;99.90;;;;;;5072048;28;20598;-51
2020/12/25 10:41:52;;;;;;;1.77;1.48;;;5.30;99.90;;;;;;5073088;28;20481;-50
2020/12/25 10:44:19;;;;;;;4.43;1.80;;;5.10;99.90;;;;;;5072941;28;20191;-50
2020/12/25 10:46:46;;;;;;;3.65;1.90;;;5.50;99.90;;;;;;5073636;28;20199;-50
2020/12/25 10:49:13;;;;;;;2.95;1.80;;;5.30;99.90;;;;;;5072959;28;20195;-50
2020/12/25 10:51:44;;;;;;;3.25;2.47;;;5.40;99.90;;;;;;5073201;28;20203;-51
2020/12/25 10:54:11;;;;;;;6.60;2.03;;;5.30;99.90;;;;;;5071708;28;20256;-51
2020/12/25 10:56:37;;;;;;;3.97;1.60;;;5.30;99.90;;;;;;5073199;28;20465;-51
2020/12/25 10:59:04;;;;;;;4.25;2.00;;;5.60;99.90;;;;;;5073036;28;20554;-51
2020/12/25 11:01:31;;;;;;;4.00;1.80;;;5.30;99.90;;;;;;5073601;28;20223;-51
2020/12/25 11:03:59;;;;;;;4.40;1.88;;;5.30;99.90;;;;;;5072933;28;20605;-51
2020/12/25 11:06:32;;;;;;;3.40;1.30;;;5.80;99.90;;;;;;5072941;28;20248;-51
2020/12/25 11:08:59;;;;;;;6.60;1.70;;;5.40;99.90;;;;;;5072711;28;20271;-50
2020/12/25 11:11:27;;;;;;;3.33;1.50;;;5.30;99.90;;;;;;5072699;28;20223;-50
2020/12/25 11:13:54;;;;;;;3.40;1.83;;;5.70;99.90;;;;;;5072376;28;20210;-50
2020/12/25 11:16:22;;;;;;;1.50;1.35;;;5.30;99.90;;;;;;5073851;28;20207;-51
2020/12/25 11:18:48;;;;;;;6.15;1.70;;;5.20;99.90;;;;;;5073137;28;20551;-51
2020/12/25 11:21:20;;;;;;;4.38;1.98;;;5.40;99.90;;;;;;5073113;28;20243;-51
2020/12/25 11:23:47;;;;;;;3.40;1.58;;;5.60;99.90;;;;;;5072886;28;20211;-51
2020/12/25 11:26:20;;;;;;;4.03;1.80;;;5.40;99.90;;;;;;5073786;28;20196;-50
2020/12/25 11:28:47;;;;;;;2.92;1.25;;;5.40;99.90;;;;;;5073433;28;20617;-53
2020/12/25 11:31:14;;;;;;;2.25;1.52;;;5.20;99.90;;;;;;5073581;28;20190;-50
2020/12/25 11:33:41;;;;;;;2.50;1.38;;;5.30;99.90;;;;;;5072958;28;20227;-50
2020/12/25 11:36:12;;;;;;;2.97;1.30;;;5.20;99.90;;;;;;5072053;28;20222;-50
2020/12/25 11:38:39;;;;;;;5.18;1.67;;;5.30;99.90;;;;;;5072816;28;20292;-50
2020/12/25 11:41:08;;;;;;;4.10;1.88;;;5.10;99.90;;;;;;5073086;28;20683;-49
2020/12/25 11:43:35;;;;;;;4.07;2.25;;;5.30;99.90;;;;;;5073146;28;20282;-49
2020/12/25 11:46:01;;;;;;;5.97;2.80;;;5.50;99.90;;;;;;5071982;28;20195;-49
2020/12/25 11:48:28;;;;;;;2.20;1.50;;;5.10;99.90;;;;;;5073116;28;20444;-50
2020/12/25 11:50:55;;;;;;;6.57;1.90;;;5.20;99.90;;;;;;5073754;28;20204;-50
2020/12/25 11:53:21;;;;;;;3.75;1.80;;;5.20;99.90;;;;;;5072639;28;20218;-49
2020/12/25 11:55:49;;;;;;;4.72;2.55;;;5.10;99.90;;;;;;5073772;28;20200;-51
2020/12/25 11:58:16;;;;;;;3.92;2.50;;;5.50;99.90;;;;;;5073345;28;20199;-48
2020/12/25 12:00:42;;;;;;;2.50;1.80;;;5.30;99.90;;;;;;5073104;28;20219;-48
2020/12/25 12:03:09;;;;;;;4.22;1.42;;;5.20;99.90;;;;;;5072481;28;20222;-47
2020/12/25 12:05:36;;;;;;;8.73;2.25;;;5.20;99.90;;;;;;5073032;28;20202;-47
2020/12/25 12:08:02;;;;;;;3.95;1.85;;;4.60;99.90;;;;;;5073647;28;20202;-50
2020/12/25 12:10:28;;;;;;;6.13;1.73;;;5.00;99.90;;;;;;5073342;28;20193;-48
2020/12/25 12:12:56;;;;;;;5.63;2.78;;;5.00;99.90;;;;;;5071873;28;20223;-49
2020/12/25 12:15:23;;;;;;;3.60;2.00;;;5.10;99.90;;;;;;5072903;28;20203;-51
2020/12/25 12:17:49;;;;;;;2.20;1.33;;;5.00;99.90;;;;;;5073034;28;20318;-49
2020/12/25 12:20:16;;;;;;;4.45;1.70;;;5.00;99.90;;;;;;5071881;28;20199;-50
2020/12/25 12:22:43;;;;;;;2.58;1.60;;;5.00;99.90;;;;;;5073209;28;20219;-49
2020/12/25 12:25:09;;;;;;;3.08;1.63;;;5.10;99.90;;;;;;5073667;28;20218;-49
2020/12/25 12:27:36;;;;;;;2.08;1.58;;;5.00;99.90;;;;;;5073108;28;20187;-50
2020/12/25 12:30:04;;;;;;;4.15;2.35;;;5.10;99.90;;;;;;5072918;28;20298;-50
2020/12/25 12:32:30;;;;;;;2.85;2.28;;;4.90;99.90;;;;;;5073149;28;20215;-50
2020/12/25 12:34:57;;;;;;;5.05;3.08;;;5.00;99.90;;;;;;5075503;28;20206;-49
2020/12/25 12:37:24;;;;;;;4.35;1.80;;;5.00;99.90;;;;;;5076769;28;20317;-49
2020/12/25 12:39:50;;;;;;;3.75;1.77;;;5.00;99.90;;;;;;5077061;28;20199;-49
2020/12/25 12:42:17;;;;;;;4.75;1.70;;;5.00;99.90;;;;;;5076017;28;20227;-51
2020/12/25 12:44:43;;;;;;;3.90;2.10;;;5.00;99.90;;;;;;5076604;28;20206;-50
2020/12/25 12:47:11;;;;;;;2.13;1.75;;;5.40;99.90;;;;;;5076306;28;20715;-48
2020/12/25 12:49:37;;;;;;;2.00;1.60;;;5.40;99.90;;;;;;5076800;28;20621;-50
2020/12/25 12:52:04;;;;;;;5.53;2.75;;;5.20;99.90;;;;;;5077233;28;20211;-49
2020/12/25 12:54:30;;;;;;;5.00;2.30;;;5.20;99.90;;;;;;5076805;28;20187;-49
2020/12/25 12:56:57;;;;;;;3.85;2.30;;;5.30;99.90;;;;;;5076845;28;20199;-48
2020/12/25 12:59:23;;;;;;;3.67;1.98;;;5.50;99.90;;;;;;5076338;28;20569;-49